createdAt,value
2023-03-06T00:01:21.058Z,4.83
2023-03-06T00:06:24.034Z,3.93
2023-03-06T00:11:27.036Z,4.93
2023-03-06T00:16:30.020Z,4.50
2023-03-06T00:21:33.176Z,4.97
2023-03-06T00:26:36.690Z,5.67
2023-03-06T00:31:39.869Z,4.17
2023-03-06T00:36:42.878Z,3.50
2023-03-06T00:41:47.058Z,5.30
2023-03-06T00:46:50.202Z,4.10
2023-03-06T00:51:53.190Z,5.00
2023-03-06T00:56:56.017Z,4.70
2023-03-06T01:01:59.458Z,4.40
2023-03-06T01:07:02.896Z,4.30
2023-03-06T01:12:06.314Z,4.60
2023-03-06T01:17:09.075Z,3.97
2023-03-06T01:22:12.136Z,4.13
2023-03-06T01:27:15.107Z,4.17
2023-03-06T01:32:18.121Z,4.47
2023-03-06T01:37:21.671Z,5.37
2023-03-06T01:42:24.685Z,4.77
2023-03-06T01:47:28.282Z,4.47
2023-03-06T01:52:45.708Z,4.10
2023-03-06T01:57:54.731Z,4.67
2023-03-06T02:03:06.984Z,4.03
2023-03-06T02:08:13.320Z,4.37
2023-03-06T02:13:16.351Z,4.10
2023-03-06T02:18:19.139Z,4.37
2023-03-06T02:24:11.777Z,3.93
2023-03-06T02:29:24.209Z,3.73
2023-03-06T02:34:27.105Z,4.50
2023-03-06T02:39:34.104Z,3.87
2023-03-06T02:44:37.437Z,4.23
2023-03-06T02:49:40.452Z,24.10
2023-03-06T02:54:43.617Z,24.30
2023-03-06T02:59:46.755Z,28.03
2023-03-06T03:04:49.749Z,16.90
2023-03-06T03:09:52.801Z,7.60
2023-03-06T03:14:56.865Z,5.80
2023-03-06T03:19:59.993Z,4.47
2023-03-06T03:25:04.201Z,3.93
2023-03-06T03:30:08.674Z,4.80
2023-03-06T03:35:11.914Z,4.50
2023-03-06T03:40:16.108Z,4.17
2023-03-06T03:45:19.411Z,4.43
2023-03-06T03:50:22.814Z,4.30
2023-03-06T03:55:25.654Z,3.70
2023-03-06T04:00:28.806Z,4.03
2023-03-06T04:05:33.402Z,4.17
2023-03-06T04:10:38.581Z,4.77
2023-03-06T04:15:41.531Z,4.60
2023-03-06T04:20:48.790Z,5.27
2023-03-06T04:25:52.062Z,5.73
2023-03-06T04:30:55.065Z,5.73
2023-03-06T04:35:58.152Z,4.90
2023-03-06T04:41:01.130Z,5.33
2023-03-06T04:46:04.141Z,5.50
2023-03-06T04:51:07.071Z,5.33
2023-03-06T04:56:10.355Z,6.90
2023-03-06T05:01:13.520Z,4.43
2023-03-06T05:06:17.745Z,4.37
2023-03-06T05:11:21.041Z,5.63
2023-03-06T05:16:24.042Z,5.50
2023-03-06T05:21:27.057Z,5.47
2023-03-06T05:26:29.868Z,6.10
2023-03-06T05:31:33.020Z,5.20
2023-03-06T05:36:36.353Z,6.50
2023-03-06T05:41:40.046Z,6.07
2023-03-06T05:46:43.048Z,5.33
2023-03-06T05:51:45.956Z,5.83
2023-03-06T05:56:49.365Z,6.47
2023-03-06T06:01:52.119Z,6.00
2023-03-06T06:06:59.369Z,6.13
2023-03-06T06:12:04.104Z,6.13
2023-03-06T06:17:07.150Z,9.70
2023-03-06T06:22:10.787Z,9.93
2023-03-06T06:27:13.835Z,7.10
2023-03-06T06:32:16.871Z,7.23
2023-03-06T06:37:19.907Z,6.00
2023-03-06T06:42:36.911Z,6.60
2023-03-06T06:47:42.613Z,8.40
2023-03-06T06:52:45.558Z,7.50
2023-03-06T06:57:48.468Z,22.50
2023-03-06T07:02:51.585Z,14.57
2023-03-06T07:07:54.624Z,9.53
2023-03-06T07:12:57.686Z,7.33
2023-03-06T07:18:01.398Z,7.53
2023-03-06T07:23:08.435Z,7.17
2023-03-06T07:28:11.514Z,6.07
2023-03-06T07:33:14.873Z,11.40
2023-03-06T07:38:17.889Z,11.73
2023-03-06T07:43:21.367Z,11.80
2023-03-06T07:48:24.467Z,9.00
2023-03-06T07:53:28.516Z,14.77
2023-03-06T07:58:31.539Z,10.67
2023-03-06T08:03:35.047Z,9.80
2023-03-06T08:08:40.342Z,8.40
2023-03-06T08:13:44.111Z,10.17
2023-03-06T08:18:47.108Z,9.17
2023-03-06T08:23:50.861Z,10.10
2023-03-06T08:28:57.373Z,9.13
2023-03-06T08:34:05.934Z,9.97
2023-03-06T08:39:09.418Z,9.20
2023-03-06T08:44:13.016Z,8.93
2023-03-06T08:49:16.073Z,12.20
2023-03-06T08:54:18.955Z,9.80
2023-03-06T08:59:21.857Z,11.10
2023-03-06T09:04:24.904Z,9.40
2023-03-06T09:09:27.990Z,8.67
2023-03-06T09:14:32.156Z,9.83
2023-03-06T09:19:35.147Z,9.03
2023-03-06T09:24:38.089Z,8.80
2023-03-06T09:29:41.058Z,8.93
2023-03-06T09:34:43.761Z,11.10
2023-03-06T09:39:46.686Z,10.27
2023-03-06T09:45:13.115Z,10.43
2023-03-06T09:50:58.779Z,10.90
2023-03-06T09:56:11.147Z,10.07
2023-03-06T10:01:29.675Z,9.17
2023-03-06T10:06:58.538Z,10.17
2023-03-06T10:12:12.201Z,10.40
2023-03-06T10:17:21.557Z,23.20
2023-03-06T10:22:48.033Z,10.70
2023-03-06T10:28:23.469Z,9.93
2023-03-06T10:33:47.755Z,10.57
2023-03-06T10:38:50.829Z,11.53
2023-03-06T10:43:59.890Z,8.60
2023-03-06T10:49:24.815Z,9.17
2023-03-06T10:54:35.148Z,8.00
2023-03-06T11:00:02.526Z,8.97
2023-03-06T11:05:26.981Z,12.30
2023-03-06T11:10:32.144Z,9.33
2023-03-06T11:15:35.546Z,8.50
2023-03-06T11:20:52.994Z,8.07
2023-03-06T11:26:05.119Z,7.50
2023-03-06T11:31:21.133Z,9.73
2023-03-06T11:37:03.741Z,9.87
2023-03-06T11:42:28.855Z,32.33
2023-03-06T11:47:44.154Z,11.13
2023-03-06T11:53:10.817Z,9.77
2023-03-06T11:58:47.875Z,16.73
2023-03-06T12:04:03.677Z,12.90
2023-03-06T12:09:12.548Z,14.47
2023-03-06T12:14:57.492Z,11.93
2023-03-06T12:20:28.030Z,12.47
2023-03-06T12:25:39.481Z,27.27
2023-03-06T12:31:37.018Z,13.43
2023-03-06T12:37:04.011Z,10.30
2023-03-06T12:42:17.828Z,12.73
2023-03-06T12:47:29.056Z,12.07
2023-03-06T12:52:34.219Z,14.10
2023-03-06T12:57:37.172Z,21.80
2023-03-06T13:03:39.331Z,15.13
2023-03-06T13:09:04.801Z,19.57
2023-03-06T13:14:34.316Z,13.03
2023-03-06T13:19:38.857Z,32.30
2023-03-06T13:24:44.007Z,17.63
2023-03-06T13:29:52.016Z,16.10
2023-03-06T13:34:55.236Z,21.17
2023-03-06T13:40:01.571Z,25.63
2023-03-06T13:45:17.769Z,19.83
2023-03-06T13:50:48.827Z,11.57
2023-03-06T13:56:07.038Z,15.63
2023-03-06T14:01:30.807Z,13.63
2023-03-06T14:06:37.473Z,13.40
2023-03-06T14:11:50.351Z,13.00
2023-03-06T14:16:53.737Z,10.77
2023-03-06T14:21:58.038Z,12.03
2023-03-06T14:27:01.356Z,12.90
2023-03-06T14:32:09.944Z,13.17
2023-03-06T14:37:25.164Z,11.27
2023-03-06T14:42:29.717Z,12.90
2023-03-06T14:47:36.258Z,21.73
2023-03-06T14:52:39.233Z,13.37
2023-03-06T14:57:42.705Z,11.87
2023-03-06T15:02:47.593Z,12.10
2023-03-06T15:07:52.894Z,19.10
2023-03-06T15:12:57.658Z,21.67
2023-03-06T15:18:00.713Z,10.90
2023-03-06T15:23:04.116Z,10.67
2023-03-06T15:28:34.628Z,21.17
2023-03-06T15:33:38.132Z,22.30
2023-03-06T15:38:45.747Z,36.67
2023-03-06T15:43:48.781Z,24.37
2023-03-06T15:49:04.283Z,18.13
2023-03-06T15:54:12.263Z,41.97
2023-03-06T15:59:24.138Z,15.97
2023-03-06T16:04:27.146Z,13.77
2023-03-06T16:09:30.075Z,22.57
2023-03-06T16:14:33.199Z,19.80
2023-03-06T16:19:36.248Z,13.63
2023-03-06T16:24:39.195Z,13.93
2023-03-06T16:29:42.099Z,22.80
2023-03-06T16:34:45.073Z,37.63
2023-03-06T16:39:48.195Z,62.93
2023-03-06T16:44:51.303Z,119.53
2023-03-06T16:49:58.041Z,44.80
2023-03-06T16:55:01.301Z,54.17
2023-03-06T17:00:06.810Z,23.90
2023-03-06T17:05:12.077Z,27.77
2023-03-06T17:10:17.129Z,31.57
2023-03-06T17:15:20.397Z,26.70
2023-03-06T17:20:23.906Z,25.73
2023-03-06T17:25:26.715Z,31.13
2023-03-06T17:30:30.529Z,33.80
2023-03-06T17:35:37.343Z,39.20
2023-03-06T17:40:40.344Z,29.10
2023-03-06T17:45:43.168Z,50.37
2023-03-06T17:50:54.471Z,27.13
2023-03-06T17:55:59.486Z,75.90
2023-03-06T18:01:17.920Z,44.13
2023-03-06T18:06:22.224Z,18.60
2023-03-06T18:11:25.325Z,44.90
2023-03-06T18:16:28.416Z,26.13
2023-03-06T18:21:31.531Z,26.33
2023-03-06T18:26:34.978Z,18.47
2023-03-06T18:31:41.087Z,54.33
2023-03-06T18:36:47.270Z,29.13
2023-03-06T18:41:50.398Z,64.50
2023-03-06T18:46:53.328Z,31.10
2023-03-06T18:51:56.483Z,31.80
2023-03-06T18:56:59.514Z,23.90
2023-03-06T19:02:02.407Z,20.57
2023-03-06T19:07:06.640Z,21.50
2023-03-06T19:12:09.858Z,23.83
2023-03-06T19:17:13.214Z,21.77
2023-03-06T19:22:16.136Z,19.70
2023-03-06T19:27:19.124Z,22.47
2023-03-06T19:32:23.256Z,24.97
2023-03-06T19:37:26.660Z,14.60
2023-03-06T19:42:31.341Z,14.53
2023-03-06T19:47:35.147Z,17.13
2023-03-06T19:52:39.263Z,18.70
2023-03-06T19:57:43.496Z,17.33
2023-03-06T20:02:46.678Z,18.07
2023-03-06T20:07:50.049Z,16.40
2023-03-06T20:12:53.140Z,16.77
2023-03-06T20:17:56.869Z,14.70
2023-03-06T20:23:04.544Z,16.07
2023-03-06T20:28:07.557Z,16.80
2023-03-06T20:33:10.586Z,17.07
2023-03-06T20:38:13.790Z,20.03
2023-03-06T20:43:16.668Z,21.27
2023-03-06T20:48:19.763Z,19.73
2023-03-06T20:53:22.744Z,30.17
2023-03-06T20:58:28.623Z,21.63
2023-03-06T21:03:31.558Z,19.30
2023-03-06T21:08:34.372Z,22.00
2023-03-06T21:13:37.488Z,28.77
2023-03-06T21:18:40.857Z,24.57
2023-03-06T21:23:44.586Z,21.77
2023-03-06T21:28:47.988Z,23.67
2023-03-06T21:33:52.001Z,24.67
2023-03-06T21:38:55.360Z,24.23
2023-03-06T21:44:01.692Z,22.83
2023-03-06T21:49:05.825Z,22.30
2023-03-06T21:54:09.725Z,23.63
2023-03-06T21:59:13.831Z,22.37
2023-03-06T22:04:16.989Z,20.67
2023-03-06T22:09:20.193Z,16.23
2023-03-06T22:14:23.236Z,23.87
2023-03-06T22:19:27.059Z,22.77
2023-03-06T22:24:31.982Z,20.60
2023-03-06T22:29:35.018Z,19.70
2023-03-06T22:34:38.172Z,19.17
2023-03-06T22:39:41.044Z,24.73
2023-03-06T22:44:44.107Z,31.60
2023-03-06T22:49:46.972Z,28.40
2023-03-06T22:54:49.918Z,25.77
2023-03-06T22:59:52.848Z,23.90
2023-03-06T23:04:55.867Z,22.70
2023-03-06T23:09:58.758Z,22.07
2023-03-06T23:15:01.864Z,24.40
2023-03-06T23:20:06.389Z,20.57
2023-03-06T23:25:09.612Z,21.53
2023-03-06T23:30:13.487Z,22.67
2023-03-06T23:35:16.516Z,24.03
2023-03-06T23:40:19.654Z,21.77
2023-03-06T23:45:23.110Z,22.17
2023-03-06T23:50:26.645Z,23.73
2023-03-06T23:55:29.669Z,27.73
